createdAt,value
2022-07-29T00:00:45.935Z,18.06
2022-07-29T00:03:14.934Z,18.01
2022-07-29T00:05:43.407Z,17.91
2022-07-29T00:08:12.739Z,17.84
2022-07-29T00:10:40.670Z,17.80
2022-07-29T00:13:08.946Z,17.78
2022-07-29T00:15:36.893Z,17.74
2022-07-29T00:18:05.129Z,17.73
2022-07-29T00:20:33.211Z,17.68
2022-07-29T00:23:00.994Z,17.67
2022-07-29T00:25:28.925Z,17.65
2022-07-29T00:27:56.765Z,17.62
2022-07-29T00:30:24.735Z,17.63
2022-07-29T00:32:52.580Z,17.63
2022-07-29T00:35:38.958Z,17.60
2022-07-29T00:38:06.836Z,17.59
2022-07-29T00:40:34.609Z,17.56
2022-07-29T00:43:03.140Z,17.51
2022-07-29T00:45:31.271Z,17.50
2022-07-29T00:47:59.179Z,17.45
2022-07-29T00:50:27.622Z,17.43
2022-07-29T00:52:55.644Z,17.40
2022-07-29T00:55:23.896Z,17.35
2022-07-29T00:57:51.826Z,17.34
2022-07-29T01:00:22.975Z,17.34
2022-07-29T01:02:50.951Z,17.32
2022-07-29T01:05:20.983Z,17.34
2022-07-29T01:07:52.274Z,17.32
2022-07-29T01:10:22.262Z,17.26
2022-07-29T01:12:52.432Z,17.27
2022-07-29T01:15:20.547Z,17.33
2022-07-29T01:18:11.268Z,17.34
2022-07-29T01:21:04.685Z,17.34
2022-07-29T01:23:48.700Z,17.32
2022-07-29T01:26:31.334Z,17.31
2022-07-29T01:29:24.535Z,17.33
2022-07-29T01:32:03.114Z,17.32
2022-07-29T01:34:51.636Z,17.30
2022-07-29T01:37:38.006Z,17.32
2022-07-29T01:40:09.527Z,17.24
2022-07-29T01:42:45.554Z,17.16
2022-07-29T01:45:42.066Z,17.17
2022-07-29T01:48:28.922Z,17.15
2022-07-29T01:51:05.528Z,17.15
2022-07-29T01:54:13.330Z,17.17
2022-07-29T01:56:43.674Z,17.16
2022-07-29T01:59:12.739Z,17.10
2022-07-29T02:01:42.695Z,17.14
2022-07-29T02:04:28.849Z,17.09
2022-07-29T02:07:03.121Z,17.04
2022-07-29T02:09:32.832Z,17.06
2022-07-29T02:12:02.450Z,17.03
2022-07-29T02:14:37.451Z,16.96
2022-07-29T02:17:05.892Z,16.90
2022-07-29T02:19:34.956Z,16.85
2022-07-29T02:22:03.624Z,16.76
2022-07-29T02:24:32.319Z,16.65
2022-07-29T02:27:02.814Z,16.58
2022-07-29T02:29:33.598Z,16.54
2022-07-29T02:32:04.219Z,16.51
2022-07-29T02:34:33.528Z,16.49
2022-07-29T02:37:01.479Z,16.47
2022-07-29T02:39:30.715Z,16.49
2022-07-29T02:42:11.483Z,16.50
2022-07-29T02:44:39.661Z,16.53
2022-07-29T02:47:41.585Z,16.60
2022-07-29T02:50:24.348Z,16.61
2022-07-29T02:53:00.193Z,16.59
2022-07-29T02:55:34.877Z,16.61
2022-07-29T02:58:24.261Z,16.58
2022-07-29T03:00:54.392Z,16.61
2022-07-29T03:03:23.269Z,16.66
2022-07-29T03:05:56.261Z,16.76
2022-07-29T03:08:24.734Z,16.78
2022-07-29T03:10:53.279Z,16.80
2022-07-29T03:13:21.764Z,16.78
2022-07-29T03:15:50.657Z,16.81
2022-07-29T03:18:19.565Z,16.86
2022-07-29T03:20:47.927Z,16.85
2022-07-29T03:23:23.915Z,16.80
2022-07-29T03:25:51.916Z,16.80
2022-07-29T03:28:20.665Z,16.75
2022-07-29T03:30:50.660Z,16.72
2022-07-29T03:33:18.727Z,16.60
2022-07-29T03:35:46.629Z,16.58
2022-07-29T03:38:14.426Z,16.61
2022-07-29T03:41:02.911Z,16.63
2022-07-29T03:43:35.785Z,16.64
2022-07-29T03:46:08.418Z,16.68
2022-07-29T03:48:40.934Z,16.82
2022-07-29T03:51:08.783Z,16.92
2022-07-29T03:53:37.721Z,17.00
2022-07-29T03:56:07.747Z,17.05
2022-07-29T03:58:35.940Z,17.08
2022-07-29T04:01:04.231Z,17.05
2022-07-29T04:03:32.146Z,17.09
2022-07-29T04:06:07.099Z,17.18
2022-07-29T04:08:35.986Z,17.23
2022-07-29T04:11:05.235Z,17.27
2022-07-29T04:13:33.949Z,17.32
2022-07-29T04:16:02.950Z,17.30
2022-07-29T04:18:30.966Z,17.32
2022-07-29T04:21:23.802Z,17.43
2022-07-29T04:23:53.980Z,17.44
2022-07-29T04:26:22.111Z,17.42
2022-07-29T04:28:51.954Z,17.47
2022-07-29T04:31:23.889Z,17.50
2022-07-29T04:33:53.847Z,17.56
2022-07-29T04:36:29.560Z,17.60
2022-07-29T04:38:57.924Z,17.63
2022-07-29T04:41:33.335Z,17.74
2022-07-29T04:44:07.138Z,17.86
2022-07-29T04:46:36.501Z,17.87
2022-07-29T04:49:04.773Z,17.90
2022-07-29T04:51:32.901Z,18.02
2022-07-29T04:54:00.803Z,18.04
2022-07-29T04:56:28.769Z,18.16
2022-07-29T04:58:56.731Z,18.26
2022-07-29T05:01:24.726Z,18.30
2022-07-29T05:03:53.979Z,18.34
2022-07-29T05:06:24.813Z,18.39
2022-07-29T05:08:52.710Z,18.44
2022-07-29T05:11:22.414Z,18.53
2022-07-29T05:13:51.625Z,18.56
2022-07-29T05:16:23.017Z,18.65
2022-07-29T05:18:50.799Z,18.74
2022-07-29T05:21:18.578Z,18.81
2022-07-29T05:23:46.516Z,18.90
2022-07-29T05:26:14.406Z,19.08
2022-07-29T05:28:42.317Z,19.26
2022-07-29T05:31:10.615Z,19.44
2022-07-29T05:33:38.727Z,19.55
2022-07-29T05:36:09.291Z,19.76
2022-07-29T05:38:37.358Z,19.86
2022-07-29T05:41:06.408Z,19.92
2022-07-29T05:43:34.411Z,19.93
2022-07-29T05:46:02.258Z,19.97
2022-07-29T05:48:30.390Z,20.07
2022-07-29T05:50:58.942Z,20.09
2022-07-29T05:53:27.771Z,20.11
2022-07-29T05:55:55.832Z,20.12
2022-07-29T05:58:23.714Z,20.15
2022-07-29T06:00:51.462Z,20.15
2022-07-29T06:03:19.331Z,20.24
2022-07-29T06:05:47.243Z,20.38
2022-07-29T06:08:15.077Z,20.53
2022-07-29T06:10:43.000Z,20.60
2022-07-29T06:13:10.985Z,20.76
2022-07-29T06:15:38.968Z,20.88
2022-07-29T06:18:10.381Z,20.96
2022-07-29T06:20:38.952Z,21.03
2022-07-29T06:23:07.121Z,21.07
2022-07-29T06:25:37.872Z,21.10
2022-07-29T06:28:05.877Z,21.06
2022-07-29T06:30:33.832Z,21.06
2022-07-29T06:33:03.083Z,21.22
2022-07-29T06:35:38.454Z,21.45
2022-07-29T06:38:33.878Z,21.55
2022-07-29T06:41:01.550Z,21.78
2022-07-29T06:43:51.931Z,21.94
2022-07-29T06:46:23.491Z,22.17
2022-07-29T06:48:53.068Z,22.28
2022-07-29T06:51:23.342Z,22.27
2022-07-29T06:53:59.448Z,22.37
2022-07-29T06:56:38.477Z,22.45
2022-07-29T06:59:09.772Z,22.60
2022-07-29T07:01:39.520Z,22.81
2022-07-29T07:04:07.702Z,22.77
2022-07-29T07:06:36.009Z,22.64
2022-07-29T07:09:04.511Z,22.57
2022-07-29T07:11:32.437Z,22.84
2022-07-29T07:14:03.759Z,23.12
2022-07-29T07:16:32.774Z,23.31
2022-07-29T07:19:03.901Z,23.23
2022-07-29T07:21:31.860Z,23.06
2022-07-29T07:24:00.782Z,22.96
2022-07-29T07:26:29.289Z,22.94
2022-07-29T07:28:57.086Z,22.91
2022-07-29T07:31:24.992Z,23.13
2022-07-29T07:33:54.620Z,23.27
2022-07-29T07:36:23.293Z,23.22
2022-07-29T07:38:51.323Z,23.29
2022-07-29T07:41:19.619Z,23.46
2022-07-29T07:43:47.562Z,23.32
2022-07-29T07:46:16.144Z,23.37
2022-07-29T07:48:44.085Z,23.49
2022-07-29T07:51:12.818Z,23.50
2022-07-29T07:53:40.697Z,23.75
2022-07-29T07:56:11.434Z,23.95
2022-07-29T07:58:40.325Z,24.09
2022-07-29T08:01:10.179Z,24.21
2022-07-29T08:03:39.238Z,24.28
2022-07-29T08:06:07.422Z,24.35
2022-07-29T08:08:35.946Z,24.45
2022-07-29T08:11:09.578Z,24.65
2022-07-29T08:13:39.171Z,24.80
2022-07-29T08:16:14.342Z,24.85
2022-07-29T08:18:45.152Z,24.96
2022-07-29T08:21:15.471Z,25.04
2022-07-29T08:24:15.792Z,25.15
2022-07-29T08:26:44.910Z,25.28
2022-07-29T08:29:18.324Z,25.53
2022-07-29T08:31:48.084Z,25.62
2022-07-29T08:34:16.040Z,25.71
2022-07-29T08:36:44.034Z,25.59
2022-07-29T08:39:11.833Z,25.69
2022-07-29T08:41:41.515Z,25.89
2022-07-29T08:44:30.563Z,25.83
2022-07-29T08:47:02.747Z,25.75
2022-07-29T08:49:30.722Z,25.80
2022-07-29T08:51:59.913Z,25.74
2022-07-29T08:54:28.860Z,25.79
2022-07-29T08:56:57.190Z,25.94
2022-07-29T08:59:27.939Z,26.22
2022-07-29T09:02:01.438Z,26.43
2022-07-29T09:04:35.580Z,26.71
2022-07-29T09:07:05.468Z,26.73
2022-07-29T09:09:35.191Z,26.81
2022-07-29T09:12:07.207Z,26.73
2022-07-29T09:14:35.528Z,26.57
2022-07-29T09:17:03.514Z,26.53
2022-07-29T09:19:38.755Z,26.81
2022-07-29T09:22:29.634Z,26.83
2022-07-29T09:24:57.656Z,26.74
2022-07-29T09:27:30.233Z,26.69
2022-07-29T09:30:07.073Z,26.74
2022-07-29T09:32:55.635Z,26.74
2022-07-29T09:35:26.238Z,26.84
2022-07-29T09:37:54.193Z,26.96
2022-07-29T09:40:29.149Z,27.09
2022-07-29T09:42:58.512Z,27.20
2022-07-29T09:45:34.950Z,27.19
2022-07-29T09:48:24.032Z,27.08
2022-07-29T09:50:53.683Z,27.02
2022-07-29T09:53:35.907Z,26.87
2022-07-29T09:59:30.043Z,26.85
2022-07-29T10:01:58.480Z,26.71
2022-07-29T10:04:41.354Z,26.68
2022-07-29T10:07:10.277Z,26.58
2022-07-29T10:09:38.064Z,26.65
2022-07-29T10:12:10.267Z,26.80
2022-07-29T10:14:39.892Z,26.91
2022-07-29T10:17:09.070Z,27.04
2022-07-29T10:19:44.017Z,27.12
2022-07-29T10:22:12.430Z,27.25
2022-07-29T10:24:40.607Z,27.31
2022-07-29T10:27:10.011Z,27.40
2022-07-29T10:29:38.648Z,27.54
2022-07-29T10:32:32.637Z,27.75
2022-07-29T10:35:23.417Z,27.93
2022-07-29T10:37:56.924Z,28.11
2022-07-29T10:41:02.352Z,28.31
2022-07-29T10:43:39.506Z,28.45
2022-07-29T10:46:12.899Z,28.56
2022-07-29T10:48:59.435Z,28.51
2022-07-29T10:51:50.495Z,28.33
2022-07-29T10:54:37.220Z,28.40
2022-07-29T10:57:17.326Z,28.46
2022-07-29T11:00:10.359Z,28.56
2022-07-29T11:02:43.520Z,28.53
2022-07-29T11:05:14.363Z,28.41
2022-07-29T11:08:19.794Z,28.24
2022-07-29T11:10:50.772Z,28.12
2022-07-29T11:13:43.867Z,28.01
2022-07-29T11:16:12.041Z,27.92
2022-07-29T11:19:13.772Z,27.78
2022-07-29T11:21:55.285Z,27.70
2022-07-29T11:24:30.330Z,27.73
2022-07-29T11:27:19.786Z,27.64
2022-07-29T11:30:05.403Z,27.60
2022-07-29T11:32:44.774Z,27.58
2022-07-29T11:35:37.467Z,27.68
2022-07-29T11:38:29.004Z,27.73
2022-07-29T11:41:15.599Z,27.73
2022-07-29T11:43:53.706Z,27.94
2022-07-29T11:46:43.793Z,28.09
2022-07-29T11:49:13.896Z,28.05
2022-07-29T11:54:57.137Z,27.95
2022-07-29T11:57:36.642Z,27.89
2022-07-29T12:00:14.670Z,27.86
2022-07-29T12:02:48.648Z,27.91
2022-07-29T12:05:48.137Z,27.96
2022-07-29T12:08:23.923Z,27.99
2022-07-29T12:10:52.444Z,27.97
2022-07-29T12:13:22.238Z,27.86
2022-07-29T12:16:00.121Z,27.89
2022-07-29T12:18:28.344Z,28.04
2022-07-29T12:21:03.899Z,28.26
2022-07-29T12:23:35.828Z,28.50
2022-07-29T12:26:10.894Z,28.69
2022-07-29T12:28:40.054Z,28.88
2022-07-29T12:31:15.111Z,29.00
2022-07-29T12:34:03.202Z,28.85
2022-07-29T12:36:31.105Z,28.69
2022-07-29T12:38:59.045Z,28.68
2022-07-29T12:41:29.644Z,28.72
2022-07-29T12:43:57.676Z,28.67
2022-07-29T12:46:25.801Z,28.53
2022-07-29T12:48:59.858Z,28.48
2022-07-29T12:51:37.194Z,28.46
2022-07-29T12:54:04.992Z,28.46
2022-07-29T12:56:42.603Z,28.49
2022-07-29T12:59:23.183Z,28.67
2022-07-29T13:01:54.099Z,28.78
2022-07-29T13:04:30.039Z,28.73
2022-07-29T13:07:08.585Z,28.56
2022-07-29T13:09:41.148Z,28.38
2022-07-29T13:12:11.276Z,28.42
2022-07-29T13:14:45.187Z,28.45
2022-07-29T13:17:18.799Z,28.52
2022-07-29T13:19:52.090Z,28.42
2022-07-29T13:22:24.986Z,28.28
2022-07-29T13:24:57.239Z,28.24
2022-07-29T13:27:27.345Z,28.21
2022-07-29T13:30:01.716Z,28.20
2022-07-29T13:32:31.290Z,28.23
2022-07-29T13:35:05.105Z,28.40
2022-07-29T13:37:36.182Z,28.62
2022-07-29T13:40:04.554Z,28.71
2022-07-29T13:42:33.798Z,28.86
2022-07-29T13:45:02.251Z,28.81
2022-07-29T13:47:32.487Z,28.76
2022-07-29T13:50:06.636Z,28.54
2022-07-29T13:52:35.824Z,28.40
2022-07-29T13:55:05.547Z,28.27
2022-07-29T13:57:33.687Z,28.18
2022-07-29T14:00:04.156Z,28.13
2022-07-29T14:02:40.998Z,28.13
2022-07-29T14:05:12.776Z,28.32
2022-07-29T14:07:41.006Z,28.54
2022-07-29T14:10:10.864Z,28.64
2022-07-29T14:12:39.471Z,28.73
2022-07-29T14:15:10.488Z,28.92
2022-07-29T14:17:38.596Z,29.27
2022-07-29T14:20:07.092Z,29.08
2022-07-29T14:22:38.946Z,28.76
2022-07-29T14:25:14.722Z,28.52
2022-07-29T14:27:44.855Z,28.38
2022-07-29T14:30:13.259Z,27.97
2022-07-29T14:32:41.581Z,27.83
2022-07-29T14:35:09.922Z,27.73
2022-07-29T14:37:40.493Z,27.68
2022-07-29T14:40:10.553Z,27.44
2022-07-29T14:42:39.612Z,27.10
2022-07-29T14:45:08.535Z,27.00
2022-07-29T14:47:36.824Z,26.90
2022-07-29T14:50:06.303Z,26.66
2022-07-29T14:52:34.156Z,26.63
2022-07-29T14:55:02.284Z,26.62
2022-07-29T14:57:30.092Z,26.71
2022-07-29T14:59:58.236Z,26.71
2022-07-29T15:02:45.851Z,26.61
2022-07-29T15:05:14.518Z,26.34
2022-07-29T15:07:42.345Z,26.20
2022-07-29T15:10:10.701Z,26.08
2022-07-29T15:12:42.588Z,25.97
2022-07-29T15:15:11.098Z,25.96
2022-07-29T15:17:39.040Z,25.89
2022-07-29T15:20:07.443Z,25.84
2022-07-29T15:22:38.354Z,25.78
2022-07-29T15:25:11.722Z,25.75
2022-07-29T15:27:41.492Z,25.68
2022-07-29T15:30:32.558Z,25.59
2022-07-29T15:33:11.137Z,25.64
2022-07-29T15:35:40.351Z,25.70
2022-07-29T15:38:16.032Z,25.68
2022-07-29T15:40:45.721Z,25.59
2022-07-29T15:43:14.093Z,25.45
2022-07-29T15:46:04.315Z,25.34
2022-07-29T15:48:32.703Z,25.26
2022-07-29T15:51:01.295Z,25.18
2022-07-29T15:53:30.050Z,25.24
2022-07-29T15:55:58.354Z,25.29
2022-07-29T15:58:26.249Z,25.28
2022-07-29T16:00:56.613Z,25.25
2022-07-29T16:03:24.963Z,25.28
2022-07-29T16:05:53.019Z,25.36
2022-07-29T16:08:21.030Z,25.38
2022-07-29T16:10:48.941Z,25.43
2022-07-29T16:13:17.075Z,25.48
2022-07-29T16:16:02.255Z,25.40
2022-07-29T16:18:32.270Z,25.34
2022-07-29T16:21:00.270Z,25.27
2022-07-29T16:23:28.216Z,25.17
2022-07-29T16:26:00.803Z,25.19
2022-07-29T16:28:31.013Z,25.23
2022-07-29T16:30:59.360Z,25.27
2022-07-29T16:33:54.767Z,25.32
2022-07-29T16:36:18.441Z,25.35
2022-07-29T16:38:47.548Z,25.36
2022-07-29T16:41:15.608Z,25.32
2022-07-29T16:43:43.558Z,25.28
2022-07-29T16:46:15.642Z,25.29
2022-07-29T16:48:50.582Z,25.34
2022-07-29T16:51:19.684Z,25.32
2022-07-29T16:53:49.861Z,25.30
2022-07-29T16:56:18.766Z,25.31
2022-07-29T16:58:46.670Z,25.27
2022-07-29T17:01:14.651Z,25.29
2022-07-29T17:04:01.511Z,25.22
2022-07-29T17:06:29.770Z,25.16
2022-07-29T17:08:57.704Z,25.21
2022-07-29T17:11:52.695Z,25.21
2022-07-29T17:14:15.119Z,25.11
2022-07-29T17:16:43.997Z,25.12
2022-07-29T17:19:31.270Z,25.17
2022-07-29T17:22:10.475Z,25.15
2022-07-29T17:24:42.937Z,25.12
2022-07-29T17:27:11.747Z,25.08
2022-07-29T17:29:39.828Z,25.07
2022-07-29T17:32:09.282Z,25.04
2022-07-29T17:34:41.971Z,25.05
2022-07-29T17:37:12.092Z,24.98
2022-07-29T17:39:43.043Z,24.90
2022-07-29T17:42:13.211Z,24.79
2022-07-29T17:44:43.508Z,24.66
2022-07-29T17:47:15.887Z,24.51
2022-07-29T17:49:45.536Z,24.51
2022-07-29T17:52:14.101Z,24.45
2022-07-29T17:54:42.550Z,24.47
2022-07-29T17:57:12.570Z,24.47
2022-07-29T17:59:41.040Z,24.54
2022-07-29T18:02:10.264Z,24.54
2022-07-29T18:04:39.329Z,24.52
2022-07-29T18:07:10.599Z,24.46
2022-07-29T18:09:44.014Z,24.41
2022-07-29T18:12:18.802Z,24.39
2022-07-29T18:14:49.783Z,24.29
2022-07-29T18:17:51.907Z,24.24
2022-07-29T18:23:57.438Z,24.00
2022-07-29T18:29:35.943Z,23.86
2022-07-29T18:32:04.244Z,23.81
2022-07-29T18:34:32.426Z,23.76
2022-07-29T18:37:01.407Z,23.71
2022-07-29T18:39:29.596Z,23.62
2022-07-29T18:41:57.511Z,23.59
2022-07-29T18:44:25.197Z,23.50
2022-07-29T18:46:53.306Z,23.44
2022-07-29T18:49:23.150Z,23.40
2022-07-29T18:51:52.466Z,23.36
2022-07-29T18:54:20.398Z,23.31
2022-07-29T18:56:48.498Z,23.23
2022-07-29T18:59:20.779Z,23.20
2022-07-29T19:01:49.164Z,23.15
2022-07-29T19:04:17.805Z,23.09
2022-07-29T19:06:45.906Z,23.08
2022-07-29T19:09:49.201Z,22.94
2022-07-29T19:12:20.185Z,22.87
2022-07-29T19:14:48.059Z,22.85
2022-07-29T19:17:17.297Z,22.81
2022-07-29T19:19:57.470Z,22.74
2022-07-29T19:22:25.437Z,22.74
2022-07-29T19:24:53.600Z,22.69
2022-07-29T19:27:21.576Z,22.62
2022-07-29T19:29:49.688Z,22.53
2022-07-29T19:32:25.374Z,22.41
2022-07-29T19:35:15.254Z,22.33
2022-07-29T19:37:43.735Z,22.24
2022-07-29T19:40:12.816Z,22.15
2022-07-29T19:42:40.825Z,22.12
2022-07-29T19:45:09.239Z,22.12
2022-07-29T19:47:37.346Z,22.10
2022-07-29T19:50:05.717Z,22.14
2022-07-29T19:52:33.737Z,22.11
2022-07-29T19:55:07.065Z,22.06
2022-07-29T19:57:41.183Z,21.97
2022-07-29T20:00:18.378Z,21.96
2022-07-29T20:02:52.058Z,21.90
2022-07-29T20:05:20.168Z,21.84
2022-07-29T20:07:49.194Z,21.85
2022-07-29T20:10:41.840Z,21.85
2022-07-29T20:13:09.906Z,21.77
2022-07-29T20:16:27.958Z,21.76
2022-07-29T20:19:21.877Z,21.72
2022-07-29T20:21:51.517Z,21.67
2022-07-29T20:24:45.104Z,21.62
2022-07-29T20:27:40.972Z,21.58
2022-07-29T20:30:09.934Z,21.53
2022-07-29T20:32:40.399Z,21.51
2022-07-29T20:35:12.356Z,21.47
2022-07-29T20:38:07.121Z,21.47
2022-07-29T20:40:37.663Z,21.45
2022-07-29T20:43:06.052Z,21.38
2022-07-29T20:45:35.555Z,21.39
2022-07-29T20:48:03.426Z,21.37
2022-07-29T20:50:31.318Z,21.35
2022-07-29T20:53:01.030Z,21.34
2022-07-29T20:55:53.886Z,21.31
2022-07-29T20:58:21.719Z,21.28
2022-07-29T21:00:52.799Z,21.18
2022-07-29T21:03:20.529Z,21.15
2022-07-29T21:05:48.479Z,21.13
2022-07-29T21:08:16.444Z,21.10
2022-07-29T21:10:44.292Z,21.10
2022-07-29T21:13:12.587Z,21.09
2022-07-29T21:16:14.903Z,21.05
2022-07-29T21:19:18.144Z,20.98
2022-07-29T21:21:36.279Z,21.01
2022-07-29T21:24:29.892Z,20.98
2022-07-29T21:27:21.357Z,20.94
2022-07-29T21:29:49.665Z,20.87
2022-07-29T21:32:29.764Z,20.87
2022-07-29T21:34:58.346Z,20.84
2022-07-29T21:37:28.286Z,20.85
2022-07-29T21:39:56.171Z,20.85
2022-07-29T21:42:30.027Z,20.85
2022-07-29T21:44:58.180Z,20.88
2022-07-29T21:47:31.932Z,20.91
2022-07-29T21:50:02.498Z,20.92
2022-07-29T21:52:30.940Z,20.89
2022-07-29T21:54:59.393Z,20.92
2022-07-29T21:57:27.072Z,20.94
2022-07-29T21:59:57.528Z,20.94
2022-07-29T22:02:27.636Z,20.85
2022-07-29T22:04:55.442Z,20.79
2022-07-29T22:07:23.229Z,20.75
2022-07-29T22:09:50.959Z,20.79
2022-07-29T22:12:18.817Z,20.82
2022-07-29T22:14:46.649Z,20.80
2022-07-29T22:17:14.811Z,20.81
2022-07-29T22:19:42.818Z,20.82
2022-07-29T22:22:15.658Z,20.79
2022-07-29T22:24:43.702Z,20.77
2022-07-29T22:27:11.951Z,20.77
2022-07-29T22:29:40.048Z,20.68
2022-07-29T22:32:07.799Z,20.59
2022-07-29T22:34:37.834Z,20.57
2022-07-29T22:37:06.058Z,20.59
2022-07-29T22:39:33.891Z,20.57
2022-07-29T22:42:01.646Z,20.54
2022-07-29T22:44:29.548Z,20.52
2022-07-29T22:46:57.796Z,20.44
2022-07-29T22:49:26.027Z,20.48
2022-07-29T22:51:53.796Z,20.52
2022-07-29T22:54:22.102Z,20.51
2022-07-29T22:56:49.962Z,20.52
2022-07-29T22:59:17.831Z,20.49
2022-07-29T23:01:45.916Z,20.49
2022-07-29T23:04:13.675Z,20.50
2022-07-29T23:06:41.419Z,20.56
2022-07-29T23:09:12.071Z,20.60
2022-07-29T23:11:39.951Z,20.61
2022-07-29T23:14:09.628Z,20.61
2022-07-29T23:16:37.617Z,20.64
2022-07-29T23:19:05.301Z,20.64
2022-07-29T23:21:33.269Z,20.66
2022-07-29T23:24:01.064Z,20.68
2022-07-29T23:26:28.910Z,20.70
2022-07-29T23:28:56.654Z,20.65
2022-07-29T23:31:24.527Z,20.61
2022-07-29T23:33:52.256Z,20.64
2022-07-29T23:36:21.051Z,20.61
2022-07-29T23:38:49.007Z,20.60
2022-07-29T23:41:16.737Z,20.57
2022-07-29T23:43:44.496Z,20.58
2022-07-29T23:46:12.322Z,20.58
2022-07-29T23:48:43.253Z,20.61
2022-07-29T23:51:10.932Z,20.61
2022-07-29T23:53:39.006Z,20.54
2022-07-29T23:56:22.409Z,20.46
2022-07-29T23:58:50.393Z,20.46
